Time;durP1;ratioP1;P1;durP2;ratioP2;P2;SDS_P1;SDS_P2;PMS_P1;PMS_P2;Temp;Humidity;BMP_temperature;BMP_pressure;BME280_temperature;BME280_humidity;BME280_pressure;Samples;Min_cycle;Max_cycle;Signal;HPM_P1;HPM_P2
2022/12/27 00:00:48;;;;;;;0.85;0.85;;;6.80;99.90;;;;;;5078970;28;20056;-32
2022/12/27 00:03:13;;;;;;;1.48;0.90;;;6.80;99.90;;;;;;5083343;28;20388;-34
2022/12/27 00:05:43;;;;;;;0.93;0.93;;;6.70;99.90;;;;;;5076925;28;20060;-32
2022/12/27 00:08:09;;;;;;;0.90;0.90;;;6.70;99.90;;;;;;5073936;28;20059;-31
2022/12/27 00:10:35;;;;;;;2.22;1.10;;;6.70;99.90;;;;;;5072801;28;20453;-30
2022/12/27 00:13:00;;;;;;;1.00;1.00;;;6.60;99.90;;;;;;5074896;28;20058;-33
2022/12/27 00:15:26;;;;;;;0.82;0.82;;;6.60;99.90;;;;;;5075089;28;20038;-33
2022/12/27 00:17:52;;;;;;;0.77;0.77;;;6.50;99.90;;;;;;5084669;27;20054;-30
2022/12/27 00:20:17;;;;;;;0.70;0.70;;;6.60;99.90;;;;;;5086841;27;20042;-32
2022/12/27 00:22:43;;;;;;;1.13;1.02;;;6.50;99.90;;;;;;5100406;27;20028;-32
2022/12/27 00:25:09;;;;;;;2.17;1.08;;;6.50;99.90;;;;;;5100832;27;20046;-29
2022/12/27 00:27:35;;;;;;;1.35;1.23;;;6.50;99.90;;;;;;5103408;27;20035;-31
2022/12/27 00:30:00;;;;;;;1.02;0.88;;;6.50;99.90;;;;;;5096480;27;20020;-29
2022/12/27 00:32:26;;;;;;;1.90;0.65;;;6.50;99.90;;;;;;5098118;27;20046;-30
2022/12/27 00:34:52;;;;;;;0.90;0.90;;;6.40;99.90;;;;;;5098667;27;20024;-36
2022/12/27 00:37:17;;;;;;;1.50;1.10;;;6.40;99.90;;;;;;5101298;27;20051;-32
2022/12/27 00:39:43;;;;;;;1.05;1.00;;;6.50;99.90;;;;;;5100628;27;20038;-32
2022/12/27 00:42:09;;;;;;;0.90;0.90;;;6.40;99.90;;;;;;5099820;27;20034;-30
2022/12/27 00:44:35;;;;;;;1.05;1.05;;;6.40;99.90;;;;;;5096455;27;20559;-31
2022/12/27 00:47:00;;;;;;;0.70;0.70;;;6.40;99.90;;;;;;5106665;27;20062;-30
2022/12/27 00:49:26;;;;;;;0.90;0.80;;;6.40;99.90;;;;;;5096586;27;20062;-30
2022/12/27 00:51:52;;;;;;;1.58;1.48;;;6.40;99.90;;;;;;5102385;27;20031;-30
2022/12/27 00:54:17;;;;;;;2.42;1.20;;;6.40;99.90;;;;;;5105107;27;20032;-31
2022/12/27 00:56:43;;;;;;;2.15;1.00;;;6.40;99.90;;;;;;5104340;27;20477;-30
2022/12/27 00:59:12;;;;;;;1.45;1.20;;;6.40;99.90;;;;;;5099443;27;20103;-33
2022/12/27 01:01:38;;;;;;;1.20;1.00;;;6.30;99.90;;;;;;5099252;27;20447;-31
2022/12/27 01:04:05;;;;;;;1.67;1.00;;;6.40;99.90;;;;;;5096279;27;20035;-30
2022/12/27 01:06:33;;;;;;;1.02;0.90;;;6.30;99.90;;;;;;5098084;27;20043;-30
2022/12/27 01:09:00;;;;;;;1.05;0.85;;;6.30;99.90;;;;;;5103037;27;20040;-32
2022/12/27 01:11:27;;;;;;;0.88;0.88;;;6.30;99.90;;;;;;5099352;27;20042;-31
2022/12/27 01:13:57;;;;;;;0.82;0.82;;;6.20;99.90;;;;;;5099498;27;20071;-30
2022/12/27 01:16:24;;;;;;;0.80;0.80;;;6.20;99.90;;;;;;5096372;27;20023;-30
2022/12/27 01:18:50;;;;;;;1.17;1.08;;;6.20;99.90;;;;;;5088261;27;20314;-31
2022/12/27 01:21:19;;;;;;;1.95;1.27;;;6.20;99.90;;;;;;5104025;27;20123;-29
2022/12/27 01:23:45;;;;;;;;;;;6.20;99.90;;;;;;5102747;27;20516;-30
2022/12/27 01:26:13;;;;;;;2.45;1.00;;;6.10;99.90;;;;;;5103338;27;19915;-30
2022/12/27 01:28:38;;;;;;;1.83;1.33;;;6.10;99.90;;;;;;5099345;27;20027;-35
2022/12/27 01:31:09;;;;;;;0.95;0.95;;;6.10;99.90;;;;;;5101429;27;20106;-32
2022/12/27 01:33:35;;;;;;;2.67;1.10;;;6.10;99.90;;;;;;5094334;27;20132;-33
2022/12/27 01:36:13;;;;;;;0.98;0.98;;;6.10;99.90;;;;;;5084746;27;20049;-33
2022/12/27 01:38:41;;;;;;;1.45;0.70;;;6.10;99.90;;;;;;5098219;27;20046;-30
2022/12/27 01:44:39;;;;;;;2.05;1.35;;;6.10;99.90;;;;;;5100388;27;20042;-30
2022/12/27 01:47:24;;;;;;;0.75;0.75;;;6.00;99.90;;;;;;5096998;27;20032;-30
2022/12/27 01:49:59;;;;;;;0.68;0.68;;;6.00;99.90;;;;;;5098557;27;20115;-32
2022/12/27 01:52:29;;;;;;;3.28;1.10;;;5.90;99.90;;;;;;5096545;27;20020;-32
2022/12/27 01:55:01;;;;;;;0.98;0.98;;;5.90;99.90;;;;;;5104322;27;20569;-30
2022/12/27 01:57:28;;;;;;;1.55;0.60;;;5.90;99.90;;;;;;5096699;27;20035;-31
2022/12/27 01:59:54;;;;;;;1.17;1.08;;;5.80;99.90;;;;;;5103198;27;20103;-30
2022/12/27 02:02:21;;;;;;;0.88;0.88;;;5.80;99.90;;;;;;5098561;27;20556;-32
2022/12/27 02:04:47;;;;;;;1.65;0.90;;;5.80;99.90;;;;;;5098152;27;20047;-32
2022/12/27 02:07:13;;;;;;;1.83;1.10;;;5.70;99.90;;;;;;5097870;27;21626;-33
2022/12/27 02:09:47;;;;;;;0.95;0.93;;;5.50;99.90;;;;;;5102954;27;20031;-31
2022/12/27 02:12:13;;;;;;;1.83;0.80;;;5.50;99.90;;;;;;5092442;27;20050;-33
2022/12/27 02:14:40;;;;;;;0.90;0.90;;;5.40;99.90;;;;;;5100869;27;20786;-32
2022/12/27 02:17:27;;;;;;;1.83;1.00;;;5.30;99.90;;;;;;5101708;27;20042;-31
2022/12/27 02:20:15;;;;;;;0.90;0.90;;;5.30;99.90;;;;;;5095675;27;20031;-35
2022/12/27 02:26:08;;;;;;;0.90;0.90;;;5.20;99.90;;;;;;5096274;27;20031;-31
2022/12/27 02:29:29;;;;;;;0.80;0.80;;;5.20;99.90;;;;;;5097294;27;20058;-37
2022/12/27 02:32:17;;;;;;;1.10;1.10;;;5.20;99.90;;;;;;5055319;27;20047;-33
2022/12/27 02:35:01;;;;;;;0.98;0.98;;;5.10;99.90;;;;;;5058514;27;21557;-34
2022/12/27 02:37:31;;;;;;;0.80;0.80;;;5.00;99.90;;;;;;5094882;27;20034;-33
2022/12/27 02:53:02;;;;;;;2.15;1.13;;;5.00;99.90;;;;;;5092508;27;20464;-34
2022/12/27 02:55:16;;;;;;;1.67;1.13;;;4.80;99.90;;;;;;5096108;27;20147;-36
2022/12/27 02:57:56;;;;;;;2.58;1.00;;;4.70;99.90;;;;;;5093557;27;20027;-34
2022/12/27 03:03:20;;;;;;;1.67;1.25;;;4.60;99.90;;;;;;5095902;27;20892;-31
2022/12/27 03:09:13;;;;;;;3.08;0.60;;;4.60;99.90;;;;;;5109412;27;20070;-32
2022/12/27 03:17:38;;;;;;;2.50;1.17;;;4.50;99.90;;;;;;5098683;27;20172;-32
2022/12/27 03:25:42;;;;;;;1.63;1.00;;;4.30;99.90;;;;;;5100085;27;20061;-31
2022/12/27 03:34:03;;;;;;;3.88;1.02;;;4.20;99.90;;;;;;5101879;27;20043;-31
2022/12/27 03:39:30;;;;;;;1.65;1.00;;;4.10;99.90;;;;;;5097192;28;20060;-34
2022/12/27 03:44:58;;;;;;;0.98;0.98;;;4.10;99.90;;;;;;5105119;27;20129;-34
2022/12/27 03:47:37;;;;;;;1.05;0.75;;;4.00;99.90;;;;;;5097232;28;20039;-31
2022/12/27 03:50:14;;;;;;;0.80;0.80;;;3.90;99.90;;;;;;5103084;28;20027;-35
2022/12/27 03:52:43;;;;;;;0.93;0.93;;;3.90;99.90;;;;;;5099637;28;20039;-33
2022/12/27 03:55:09;;;;;;;;;;;3.80;99.90;;;;;;5100226;28;20543;-31
2022/12/27 03:57:35;;;;;;;0.45;0.45;;;3.80;99.90;;;;;;5103781;27;19912;-32
2022/12/27 04:00:01;;;;;;;1.15;0.98;;;3.70;99.90;;;;;;5087218;28;20031;-34
2022/12/27 04:02:27;;;;;;;0.85;0.85;;;3.70;99.90;;;;;;5100780;28;20149;-33
2022/12/27 04:04:52;;;;;;;0.88;0.88;;;3.60;99.90;;;;;;5093323;28;20503;-35
2022/12/27 04:07:18;;;;;;;1.33;0.90;;;3.60;99.90;;;;;;5102489;28;20032;-32
2022/12/27 04:34:41;;;;;;;3.65;1.70;;;3.50;99.90;;;;;;5103504;28;20519;-32
2022/12/27 04:37:09;;;;;;;1.20;1.10;;;3.50;99.90;;;;;;5109384;28;20084;-34
2022/12/27 04:39:35;;;;;;;1.48;1.13;;;3.50;99.90;;;;;;5099589;28;20080;-33
2022/12/27 04:56:04;;;;;;;2.05;1.60;;;3.40;99.90;;;;;;5097194;28;20051;-35
2022/12/27 04:58:30;;;;;;;3.50;1.80;;;3.40;99.90;;;;;;5101353;28;20023;-32
2022/12/27 05:03:45;;;;;;;1.60;1.50;;;3.20;99.90;;;;;;5098041;27;20108;-31
2022/12/27 05:06:11;;;;;;;7.10;3.53;;;3.20;99.90;;;;;;5097899;27;20040;-35
2022/12/27 05:14:10;;;;;;;9.57;5.78;;;3.20;99.90;;;;;;5097106;27;20093;-36
2022/12/27 05:16:39;;;;;;;1.88;1.60;;;3.10;99.90;;;;;;5098576;27;21787;-31
2022/12/27 05:19:07;;;;;;;0.60;0.60;;;2.90;99.90;;;;;;5103862;27;20028;-33
2022/12/27 05:25:33;;;;;;;4.20;1.33;;;2.40;99.90;;;;;;5098744;27;20461;-31
2022/12/27 05:27:10;;;;;;;0.95;0.65;;;2.30;99.90;;;;;;5103139;27;20040;-34
2022/12/27 05:29:36;;;;;;;0.80;0.80;;;2.30;99.90;;;;;;5100729;27;20256;-31
2022/12/27 05:32:01;;;;;;;1.08;1.00;;;2.10;99.90;;;;;;5112886;27;20031;-35
2022/12/27 05:34:27;;;;;;;1.73;0.95;;;2.10;99.90;;;;;;5109596;27;20622;-33
2022/12/27 05:36:52;;;;;;;1.33;1.05;;;1.90;99.90;;;;;;5111215;27;20020;-35
2022/12/27 05:39:18;;;;;;;1.70;1.13;;;1.80;99.90;;;;;;5102049;28;20575;-33
2022/12/27 05:41:43;;;;;;;2.03;1.05;;;1.70;99.90;;;;;;5105783;27;20537;-31
2022/12/27 05:44:09;;;;;;;2.65;1.42;;;1.80;99.90;;;;;;5102714;27;20098;-31
2022/12/27 05:46:35;;;;;;;1.13;1.10;;;1.70;99.90;;;;;;5098368;27;20015;-32
2022/12/27 05:49:00;;;;;;;1.10;1.00;;;1.70;99.90;;;;;;5106570;27;20553;-34
2022/12/27 05:51:26;;;;;;;0.80;0.80;;;1.40;99.90;;;;;;5102201;27;20492;-32
2022/12/27 05:53:52;;;;;;;1.00;0.90;;;1.20;99.90;;;;;;5094573;27;20473;-31
2022/12/27 05:56:19;;;;;;;1.45;0.80;;;1.20;99.90;;;;;;5095949;27;20121;-32
2022/12/27 05:58:45;;;;;;;1.13;0.90;;;1.00;99.90;;;;;;5106887;27;20028;-35
2022/12/27 06:01:15;;;;;;;1.75;1.00;;;0.90;99.90;;;;;;5107207;27;20659;-34
2022/12/27 06:03:40;;;;;;;0.93;0.90;;;1.00;99.90;;;;;;5102797;27;20065;-31
2022/12/27 06:06:07;;;;;;;2.45;1.50;;;0.80;99.90;;;;;;5102312;27;20031;-31
2022/12/27 06:08:33;;;;;;;2.00;1.00;;;0.90;99.90;;;;;;5104059;27;20127;-33
2022/12/27 06:11:02;;;;;;;1.33;1.05;;;0.80;99.90;;;;;;5101592;27;20031;-33
2022/12/27 06:13:28;;;;;;;;;;;0.70;99.90;;;;;;5099219;27;20135;-35
2022/12/27 06:15:53;;;;;;;1.10;1.10;;;0.70;99.90;;;;;;5104056;27;19998;-33
2022/12/27 06:18:19;;;;;;;2.90;1.70;;;0.70;99.90;;;;;;5099058;27;20031;-31
2022/12/27 06:20:44;;;;;;;2.58;1.85;;;0.90;99.90;;;;;;5099158;28;20458;-33
2022/12/27 06:23:10;;;;;;;4.63;1.80;;;1.00;99.90;;;;;;5101658;28;20468;-31
2022/12/27 06:25:37;;;;;;;1.80;1.70;;;1.00;99.90;;;;;;5102294;27;20050;-35
2022/12/27 06:28:02;;;;;;;2.45;1.80;;;1.20;99.90;;;;;;5098020;28;20028;-33
2022/12/27 06:30:28;;;;;;;2.40;1.85;;;1.20;99.90;;;;;;5102365;27;20073;-32
2022/12/27 06:32:54;;;;;;;4.03;1.52;;;1.20;99.90;;;;;;5101720;27;20386;-32
2022/12/27 06:35:19;;;;;;;2.45;1.83;;;1.30;99.90;;;;;;5099628;27;20741;-32
2022/12/27 06:37:45;;;;;;;2.45;1.55;;;1.20;99.90;;;;;;5102139;28;20062;-34
2022/12/27 06:40:10;;;;;;;1.73;1.63;;;0.90;99.90;;;;;;5099571;28;20023;-32
2022/12/27 06:42:36;;;;;;;4.60;1.45;;;0.60;99.90;;;;;;5096283;27;20390;-32
2022/12/27 06:45:02;;;;;;;2.08;1.58;;;0.60;99.90;;;;;;5106133;27;20142;-31
2022/12/27 06:47:27;;;;;;;2.75;2.00;;;0.50;99.90;;;;;;5105609;27;20512;-34
2022/12/27 06:49:54;;;;;;;2.25;1.75;;;0.50;99.90;;;;;;5108014;27;20035;-32
2022/12/27 06:52:22;;;;;;;2.53;1.92;;;0.40;99.90;;;;;;5087959;28;20543;-31
2022/12/27 06:54:47;;;;;;;3.45;2.00;;;0.40;99.90;;;;;;5099439;27;20441;-31
2022/12/27 06:57:13;;;;;;;1.25;1.20;;;0.40;99.90;;;;;;5104010;27;20110;-34
2022/12/27 06:59:39;;;;;;;3.53;1.90;;;0.40;99.90;;;;;;5098877;27;20504;-33
2022/12/27 07:02:04;;;;;;;4.35;2.20;;;0.40;99.90;;;;;;5101389;27;20035;-33
2022/12/27 07:04:30;;;;;;;2.78;1.55;;;0.40;99.90;;;;;;5104353;27;20496;-32
2022/12/27 07:06:56;;;;;;;3.25;2.10;;;0.40;99.90;;;;;;5096232;27;20058;-36
2022/12/27 07:09:21;;;;;;;3.03;1.75;;;0.40;99.90;;;;;;5105525;27;20024;-33
2022/12/27 07:11:47;;;;;;;3.20;2.40;;;0.50;99.90;;;;;;5099363;28;20024;-33
2022/12/27 07:14:13;;;;;;;1.85;1.75;;;0.60;99.90;;;;;;5096543;27;20181;-32
2022/12/27 07:16:38;;;;;;;4.85;2.45;;;0.70;99.90;;;;;;5098390;27;20024;-32
2022/12/27 07:19:04;;;;;;;3.72;1.98;;;0.80;99.90;;;;;;5104063;27;20079;-32
2022/12/27 07:21:33;;;;;;;3.88;2.00;;;0.90;99.90;;;;;;5097039;28;20500;-32
2022/12/27 07:23:59;;;;;;;2.38;1.50;;;0.90;99.90;;;;;;5085469;28;20036;-31
2022/12/27 07:26:28;;;;;;;1.48;1.35;;;0.90;99.90;;;;;;5097361;27;20130;-33
2022/12/27 07:28:55;;;;;;;2.30;1.67;;;0.80;99.90;;;;;;5103780;28;20055;-31
2022/12/27 07:31:23;;;;;;;1.63;1.48;;;0.70;99.90;;;;;;5093196;28;20036;-32
2022/12/27 07:33:49;;;;;;;2.17;1.70;;;0.60;99.90;;;;;;5099604;27;20397;-31
2022/12/27 07:36:21;;;;;;;1.30;1.20;;;0.60;99.90;;;;;;5092352;27;20028;-31
2022/12/27 07:38:47;;;;;;;2.92;2.00;;;0.60;99.90;;;;;;5100432;28;20568;-32
2022/12/27 07:41:13;;;;;;;1.58;1.48;;;0.60;99.90;;;;;;5100275;28;20028;-33
2022/12/27 07:43:39;;;;;;;4.45;1.60;;;0.70;99.90;;;;;;5106776;28;20378;-34
2022/12/27 07:46:22;;;;;;;2.17;1.67;;;0.70;99.90;;;;;;5094637;28;20035;-33
2022/12/27 07:48:48;;;;;;;3.22;1.63;;;0.70;99.90;;;;;;5099423;28;20032;-32
2022/12/27 07:51:14;;;;;;;2.53;1.63;;;0.70;99.90;;;;;;5093237;28;20524;-32
2022/12/27 07:53:41;;;;;;;7.22;1.80;;;0.80;99.90;;;;;;5106775;27;20100;-32
2022/12/27 07:56:16;;;;;;;2.53;1.92;;;0.90;99.90;;;;;;5105414;28;20027;-35
2022/12/27 07:58:43;;;;;;;4.88;2.20;;;0.90;99.90;;;;;;5102844;28;20533;-33
2022/12/27 08:01:10;;;;;;;2.47;2.30;;;0.90;99.90;;;;;;5090964;28;20032;-32
2022/12/27 08:03:36;;;;;;;1.85;1.75;;;0.90;99.90;;;;;;5079105;28;20036;-32
2022/12/27 08:06:02;;;;;;;2.00;1.90;;;0.90;99.90;;;;;;5078995;28;20099;-32
2022/12/27 08:08:38;;;;;;;6.03;2.40;;;0.90;99.90;;;;;;5089231;28;20545;-33
2022/12/27 08:11:04;;;;;;;2.10;1.95;;;0.80;99.90;;;;;;5078910;28;20033;-36
2022/12/27 08:13:30;;;;;;;1.63;1.52;;;0.70;99.90;;;;;;5078844;28;20387;-34
2022/12/27 08:15:56;;;;;;;1.40;1.40;;;0.70;99.90;;;;;;5080965;28;20074;-32
2022/12/27 08:18:21;;;;;;;1.92;1.75;;;0.80;99.90;;;;;;5086078;28;20020;-33
2022/12/27 08:20:47;;;;;;;2.25;1.70;;;0.80;99.90;;;;;;5076128;28;20076;-32
2022/12/27 08:23:13;;;;;;;2.08;1.83;;;0.90;99.90;;;;;;5081485;28;20109;-33
2022/12/27 08:25:38;;;;;;;3.15;2.08;;;0.90;99.90;;;;;;5074375;28;20032;-32
2022/12/27 08:28:06;;;;;;;3.70;2.42;;;0.90;99.90;;;;;;5083990;28;20028;-34
2022/12/27 08:30:32;;;;;;;2.28;2.08;;;0.90;99.90;;;;;;5081352;28;20033;-33
2022/12/27 08:32:59;;;;;;;6.15;2.35;;;1.00;99.90;;;;;;5074099;28;20958;-32
2022/12/27 08:35:24;;;;;;;1.92;1.60;;;1.10;99.90;;;;;;5080576;28;20036;-33
2022/12/27 08:37:50;;;;;;;2.25;2.05;;;1.20;99.90;;;;;;5081048;28;20033;-34
2022/12/27 08:40:16;;;;;;;10.18;2.80;;;1.20;99.90;;;;;;5086703;28;20031;-32
2022/12/27 08:42:41;;;;;;;2.63;2.20;;;1.30;99.90;;;;;;5080579;28;20114;-33
2022/12/27 08:45:07;;;;;;;3.22;2.78;;;1.40;99.90;;;;;;5080429;28;20093;-34
2022/12/27 08:47:33;;;;;;;3.45;3.13;;;1.50;99.90;;;;;;5081430;28;20256;-33
2022/12/27 08:49:58;;;;;;;3.85;2.85;;;1.50;99.90;;;;;;5080782;28;20787;-32
2022/12/27 08:52:25;;;;;;;3.78;3.15;;;1.60;99.90;;;;;;5084359;28;20016;-32
2022/12/27 08:54:51;;;;;;;3.17;2.67;;;1.60;99.90;;;;;;5085334;28;20032;-36
2022/12/27 08:57:16;;;;;;;2.65;2.00;;;1.70;99.90;;;;;;5084678;28;20024;-33
2022/12/27 08:59:42;;;;;;;2.33;2.05;;;1.80;99.90;;;;;;5089558;28;20035;-32
2022/12/27 09:02:09;;;;;;;2.03;1.85;;;1.90;99.90;;;;;;5087437;28;20074;-35
2022/12/27 09:04:35;;;;;;;1.50;1.43;;;2.00;99.90;;;;;;5077034;28;20032;-33
2022/12/27 09:07:01;;;;;;;4.38;1.60;;;2.10;99.90;;;;;;5082211;28;20031;-31
2022/12/27 09:09:27;;;;;;;2.78;1.73;;;2.20;99.90;;;;;;5083306;28;20389;-32
2022/12/27 09:11:52;;;;;;;3.47;2.13;;;2.20;99.90;;;;;;5081060;28;20021;-36
2022/12/27 09:14:21;;;;;;;2.22;2.03;;;2.40;99.90;;;;;;5082320;28;20048;-32
2022/12/27 09:16:46;;;;;;;3.28;1.98;;;2.40;99.90;;;;;;5079374;28;20017;-32
2022/12/27 09:19:12;;;;;;;4.35;2.30;;;2.50;99.90;;;;;;5086466;28;20024;-33
2022/12/27 09:21:40;;;;;;;4.80;2.25;;;2.60;99.90;;;;;;5085338;28;20370;-34
2022/12/27 09:24:07;;;;;;;1.88;1.58;;;2.60;99.90;;;;;;5080837;28;20101;-33
2022/12/27 09:26:32;;;;;;;2.47;2.28;;;2.70;99.90;;;;;;5081096;28;20066;-35
2022/12/27 09:28:58;;;;;;;1.80;1.55;;;2.80;99.90;;;;;;5085213;28;20480;-31
2022/12/27 09:31:25;;;;;;;1.95;1.55;;;2.80;99.90;;;;;;5080563;28;20043;-33
2022/12/27 09:33:52;;;;;;;2.80;2.42;;;2.80;99.90;;;;;;5085104;28;20505;-33
2022/12/27 09:36:20;;;;;;;2.47;2.25;;;2.80;99.90;;;;;;5083064;28;20020;-33
2022/12/27 09:38:47;;;;;;;2.65;2.00;;;2.90;99.90;;;;;;5076681;28;20016;-32
2022/12/27 09:41:27;;;;;;;1.40;1.30;;;2.90;99.90;;;;;;5085258;28;20031;-34
2022/12/27 09:43:57;;;;;;;1.33;1.23;;;3.00;99.90;;;;;;5087359;28;20488;-36
2022/12/27 09:46:51;;;;;;;3.38;1.15;;;3.10;99.90;;;;;;5078596;28;20563;-33
2022/12/27 09:49:26;;;;;;;2.33;2.10;;;3.10;99.90;;;;;;5082998;28;20024;-34
2022/12/27 09:51:59;;;;;;;1.10;1.10;;;3.20;99.90;;;;;;5083724;28;20512;-36
2022/12/27 09:54:32;;;;;;;4.10;2.00;;;3.30;99.90;;;;;;5080182;28;20094;-31
2022/12/27 09:57:01;;;;;;;2.92;1.30;;;3.30;99.90;;;;;;5081747;28;20020;-36
2022/12/27 09:59:38;;;;;;;1.85;1.63;;;3.30;99.90;;;;;;5084300;28;20070;-33
2022/12/27 10:02:21;;;;;;;3.60;2.17;;;3.50;99.90;;;;;;5079408;28;20664;-33
2022/12/27 10:04:48;;;;;;;2.83;2.45;;;3.50;99.90;;;;;;5078382;28;20445;-32
2022/12/27 10:07:45;;;;;;;3.30;1.80;;;3.50;99.90;;;;;;5083212;28;20020;-35
2022/12/27 10:10:14;;;;;;;2.22;1.33;;;3.50;99.90;;;;;;5083604;28;20060;-33
2022/12/27 10:12:57;;;;;;;;;;;3.60;99.90;;;;;;5079382;28;20055;-33
2022/12/27 10:15:35;;;;;;;1.17;1.08;;;3.70;99.90;;;;;;5076044;28;19912;-35
2022/12/27 10:18:16;;;;;;;3.55;2.13;;;3.80;99.90;;;;;;5076943;28;20323;-33
2022/12/27 10:20:50;;;;;;;1.55;1.08;;;3.90;99.90;;;;;;5082338;28;20108;-33
2022/12/27 10:23:21;;;;;;;1.70;1.60;;;4.00;99.90;;;;;;5081091;28;20024;-32
2022/12/27 10:25:59;;;;;;;5.05;2.47;;;3.90;99.90;;;;;;5077039;28;20024;-29
2022/12/27 10:28:50;;;;;;;2.30;1.80;;;4.00;99.90;;;;;;5086720;28;20470;-35
2022/12/27 10:31:18;;;;;;;1.00;0.93;;;4.10;99.90;;;;;;5079439;28;20032;-30
2022/12/27 10:33:45;;;;;;;1.20;1.08;;;4.20;99.90;;;;;;5076792;28;20036;-32
2022/12/27 10:36:24;;;;;;;2.50;1.40;;;4.30;99.90;;;;;;5081793;28;20106;-31
2022/12/27 10:38:50;;;;;;;1.02;1.02;;;4.30;99.90;;;;;;5086189;28;20031;-30
2022/12/27 10:41:37;;;;;;;3.33;1.45;;;4.40;99.90;;;;;;5079758;28;20020;-35
2022/12/27 10:44:11;;;;;;;1.67;1.35;;;4.30;99.90;;;;;;5084087;28;20040;-33
2022/12/27 10:46:39;;;;;;;2.10;1.42;;;4.40;99.90;;;;;;5079685;28;20123;-31
2022/12/27 10:49:22;;;;;;;0.80;0.80;;;4.50;99.90;;;;;;5076030;28;20086;-35
2022/12/27 10:51:51;;;;;;;1.67;1.67;;;4.50;99.90;;;;;;5079080;28;20417;-34
2022/12/27 10:54:26;;;;;;;0.93;0.93;;;4.60;99.90;;;;;;5081839;28;20076;-34
2022/12/27 10:56:53;;;;;;;1.20;1.10;;;4.70;99.90;;;;;;5074893;28;20523;-34
2022/12/27 10:59:20;;;;;;;1.45;1.35;;;4.70;99.90;;;;;;5072441;28;20081;-32
2022/12/27 11:02:16;;;;;;;1.00;1.00;;;4.70;99.90;;;;;;5092584;28;20565;-31
2022/12/27 11:04:57;;;;;;;1.10;1.00;;;4.80;99.90;;;;;;5090164;28;20042;-35
2022/12/27 11:07:31;;;;;;;1.55;0.98;;;4.80;99.90;;;;;;5096351;28;20435;-30
2022/12/27 11:10:15;;;;;;;2.15;0.75;;;4.90;99.90;;;;;;5099146;28;20069;-33
2022/12/27 11:12:54;;;;;;;0.95;0.95;;;5.10;99.90;;;;;;5097437;28;20051;-31
2022/12/27 11:15:20;;;;;;;0.60;0.60;;;5.20;99.90;;;;;;5098520;28;20351;-32
2022/12/27 11:18:01;;;;;;;0.70;0.70;;;5.30;99.90;;;;;;5100416;28;20020;-33
2022/12/27 11:20:44;;;;;;;1.25;0.93;;;5.30;99.90;;;;;;5099731;28;20384;-32
2022/12/27 11:23:17;;;;;;;0.90;0.90;;;5.40;99.90;;;;;;5102518;28;20019;-34
2022/12/27 11:25:56;;;;;;;0.70;0.70;;;5.40;99.90;;;;;;5097685;28;20045;-34
2022/12/27 11:28:38;;;;;;;0.50;0.50;;;5.40;99.90;;;;;;5100605;28;20499;-32
2022/12/27 11:31:15;;;;;;;0.50;0.50;;;5.50;99.90;;;;;;5088130;28;20047;-33
2022/12/27 11:33:48;;;;;;;0.80;0.80;;;5.60;99.90;;;;;;5072377;28;20496;-33
2022/12/27 11:36:23;;;;;;;1.50;0.98;;;5.70;99.90;;;;;;5066937;28;20021;-36
2022/12/27 11:38:49;;;;;;;0.80;0.80;;;5.80;99.90;;;;;;5074100;28;20028;-35
2022/12/27 11:41:27;;;;;;;0.95;0.95;;;5.80;99.90;;;;;;5069142;28;20459;-31
2022/12/27 11:44:07;;;;;;;0.60;0.60;;;5.90;99.90;;;;;;5072213;28;20035;-30
2022/12/27 11:46:44;;;;;;;1.05;0.85;;;5.90;99.90;;;;;;5077941;28;20671;-31
2022/12/27 11:49:20;;;;;;;0.70;0.70;;;6.00;99.90;;;;;;5076032;28;20066;-31
2022/12/27 11:52:35;;;;;;;1.30;1.02;;;6.00;99.90;;;;;;5077900;28;20119;-34
2022/12/27 11:55:32;;;;;;;0.63;0.63;;;6.00;99.60;;;;;;5072200;28;20024;-30
2022/12/27 11:58:26;;;;;;;0.60;0.60;;;6.10;99.90;;;;;;5076071;28;20062;-31
2022/12/27 12:01:13;;;;;;;0.90;0.90;;;6.10;99.90;;;;;;5074456;28;20037;-31
2022/12/27 12:04:16;;;;;;;0.63;0.63;;;6.20;99.90;;;;;;5078273;28;20417;-31
2022/12/27 12:06:57;;;;;;;0.50;0.50;;;6.20;99.90;;;;;;5076194;28;20039;-31
2022/12/27 12:09:49;;;;;;;0.95;0.95;;;6.10;99.90;;;;;;5078462;28;20028;-31
2022/12/27 12:13:01;;;;;;;0.60;0.60;;;6.00;98.20;;;;;;5075747;28;20107;-32
2022/12/27 12:15:44;;;;;;;3.70;0.60;;;5.90;99.90;;;;;;5064492;28;20471;-31
2022/12/27 12:18:35;;;;;;;0.75;0.75;;;5.90;99.90;;;;;;5081060;28;20048;-32
2022/12/27 12:21:45;;;;;;;0.43;0.40;;;5.80;99.90;;;;;;5065094;28;20512;-30
2022/12/27 12:24:54;;;;;;;0.50;0.50;;;5.90;99.90;;;;;;5059717;28;20059;-34
2022/12/27 12:27:32;;;;;;;0.68;0.68;;;6.00;99.90;;;;;;5076921;28;20028;-34
2022/12/27 12:30:14;;;;;;;3.73;0.60;;;6.00;99.90;;;;;;5076736;28;20048;-32
2022/12/27 12:32:42;;;;;;;0.95;0.60;;;6.10;99.90;;;;;;5080062;28;20037;-32
2022/12/27 12:35:30;;;;;;;0.43;0.43;;;6.10;99.90;;;;;;5077903;28;20028;-33
2022/12/27 12:38:04;;;;;;;0.50;0.50;;;6.20;99.90;;;;;;5080840;28;20393;-31
2022/12/27 12:41:03;;;;;;;2.45;0.60;;;6.30;99.90;;;;;;5080020;28;20039;-34
2022/12/27 12:43:58;;;;;;;0.82;0.65;;;6.20;99.90;;;;;;5080683;28;20032;-30
2022/12/27 12:46:40;;;;;;;0.95;0.60;;;6.30;99.90;;;;;;5073418;28;20055;-33
2022/12/27 12:49:24;;;;;;;0.88;0.88;;;6.20;99.90;;;;;;5079676;28;20059;-31
2022/12/27 12:52:11;;;;;;;0.82;0.82;;;6.20;99.90;;;;;;5083129;28;20082;-30
2022/12/27 12:54:53;;;;;;;1.30;0.98;;;6.30;99.90;;;;;;5074802;28;20035;-31
2022/12/27 12:58:06;;;;;;;0.50;0.50;;;6.30;99.90;;;;;;5079745;28;20027;-36
2022/12/27 13:01:02;;;;;;;2.08;0.60;;;6.40;99.90;;;;;;5031336;28;20692;-32
2022/12/27 13:03:44;;;;;;;0.75;0.75;;;6.40;99.30;;;;;;5077888;28;20033;-31
2022/12/27 13:06:22;;;;;;;0.90;0.60;;;6.40;99.90;;;;;;5075060;28;20036;-31
2022/12/27 13:09:08;;;;;;;0.50;0.50;;;6.40;99.90;;;;;;5077298;28;20033;-32
2022/12/27 13:11:51;;;;;;;1.88;0.70;;;6.50;99.70;;;;;;5074101;28;20062;-31
2022/12/27 13:14:41;;;;;;;1.60;0.60;;;6.40;99.90;;;;;;5073297;28;20718;-31
2022/12/27 13:17:31;;;;;;;0.65;0.65;;;6.40;99.90;;;;;;5076453;28;20024;-32
2022/12/27 13:20:13;;;;;;;0.43;0.43;;;6.40;99.90;;;;;;5062666;28;20043;-33
2022/12/27 13:22:45;;;;;;;0.75;0.60;;;6.50;99.90;;;;;;5077310;28;20032;-31
2022/12/27 13:25:20;;;;;;;0.82;0.82;;;6.40;99.90;;;;;;5075903;28;20032;-31
2022/12/27 13:28:23;;;;;;;0.68;0.68;;;6.50;99.90;;;;;;5079374;28;20035;-30
2022/12/27 13:31:04;;;;;;;1.65;1.10;;;6.40;99.90;;;;;;5077045;28;20032;-30
2022/12/27 13:34:07;;;;;;;1.45;0.70;;;6.30;99.90;;;;;;5087285;28;20104;-31
2022/12/27 13:37:01;;;;;;;0.73;0.68;;;6.30;99.90;;;;;;5080895;28;20081;-32
2022/12/27 13:39:48;;;;;;;1.15;0.60;;;6.30;99.90;;;;;;5084119;28;20025;-33
2022/12/27 13:42:51;;;;;;;2.13;0.68;;;6.40;99.90;;;;;;5079355;28;20062;-32
2022/12/27 13:45:40;;;;;;;0.50;0.50;;;6.40;99.90;;;;;;5073832;28;20028;-31
2022/12/27 13:48:22;;;;;;;4.35;1.00;;;6.40;99.90;;;;;;5062921;28;20046;-31
2022/12/27 13:50:54;;;;;;;0.90;0.90;;;6.40;99.90;;;;;;5076881;28;20042;-31
2022/12/27 13:53:38;;;;;;;1.25;0.90;;;6.40;99.90;;;;;;5076470;28;20035;-32
2022/12/27 13:56:26;;;;;;;1.25;1.10;;;6.30;99.90;;;;;;5079565;28;20553;-36
2022/12/27 13:59:21;;;;;;;;;;;6.30;99.90;;;;;;5080947;28;20485;-31
2022/12/27 14:01:52;;;;;;;2.78;1.10;;;6.30;99.90;;;;;;5075507;28;19931;-31
2022/12/27 14:05:12;;;;;;;0.77;0.77;;;6.30;99.90;;;;;;5080258;28;20032;-32
2022/12/27 14:07:40;;;;;;;1.67;0.70;;;6.40;99.90;;;;;;5077497;28;20404;-34
2022/12/27 14:10:27;;;;;;;2.28;1.20;;;6.40;99.90;;;;;;5073587;28;20496;-33
2022/12/27 14:12:56;;;;;;;3.05;1.00;;;6.40;99.90;;;;;;5072673;28;20536;-32
2022/12/27 14:15:59;;;;;;;1.55;1.05;;;6.40;99.90;;;;;;5076131;28;20477;-31
2022/12/27 14:18:54;;;;;;;0.90;0.90;;;6.40;99.90;;;;;;5076621;28;20025;-34
2022/12/27 14:21:40;;;;;;;1.30;0.88;;;6.40;99.90;;;;;;5072889;28;20040;-32
2022/12/27 14:24:40;;;;;;;1.38;1.08;;;6.30;99.90;;;;;;5078038;28;20032;-33
2022/12/27 14:27:38;;;;;;;2.17;1.10;;;6.20;99.90;;;;;;5073773;28;20035;-33
2022/12/27 14:30:04;;;;;;;1.48;0.90;;;6.30;99.90;;;;;;5079757;28;20114;-32
2022/12/27 14:32:51;;;;;;;2.40;1.10;;;6.20;99.90;;;;;;5070851;28;20116;-30
2022/12/27 14:35:47;;;;;;;0.98;0.98;;;6.20;99.90;;;;;;5079433;28;20393;-32
2022/12/27 14:38:37;;;;;;;2.15;1.00;;;6.20;99.90;;;;;;5075530;28;20413;-31
2022/12/27 14:41:22;;;;;;;1.00;0.90;;;6.10;99.90;;;;;;5071094;28;20024;-31
2022/12/27 14:43:59;;;;;;;1.15;1.05;;;6.10;99.90;;;;;;5079253;28;20042;-33
2022/12/27 14:46:34;;;;;;;1.70;1.10;;;6.10;99.90;;;;;;5074736;28;20160;-32
2022/12/27 14:49:22;;;;;;;3.70;1.20;;;6.00;99.90;;;;;;5077210;28;20516;-32
2022/12/27 14:52:14;;;;;;;2.25;1.48;;;5.90;99.90;;;;;;5074699;28;20059;-32
2022/12/27 14:55:01;;;;;;;1.15;1.13;;;5.90;99.90;;;;;;5078912;28;20127;-34
2022/12/27 14:57:54;;;;;;;6.10;1.83;;;5.80;99.90;;;;;;5084905;28;20122;-32
2022/12/27 15:00:23;;;;;;;1.80;1.30;;;5.80;99.90;;;;;;5071507;28;20037;-32
2022/12/27 15:03:26;;;;;;;1.55;1.30;;;5.70;99.90;;;;;;5077694;28;20012;-31
2022/12/27 15:06:37;;;;;;;3.05;1.50;;;5.60;99.90;;;;;;5079965;28;20339;-31
2022/12/27 15:09:27;;;;;;;3.70;2.00;;;5.60;99.90;;;;;;5004997;28;20068;-30
2022/12/27 15:12:12;;;;;;;4.53;2.55;;;5.50;99.90;;;;;;5005137;28;20486;-31